Time;durP1;ratioP1;P1;durP2;ratioP2;P2;SDS_P1;SDS_P2;PMS_P1;PMS_P2;Temp;Humidity;BMP_temperature;BMP_pressure;BME280_temperature;BME280_humidity;BME280_pressure;Samples;Min_cycle;Max_cycle;Signal;HPM_P1;HPM_P2
2022/09/12 00:01:14;;;;;;;0.30;0.30;;;13.20;99.90;;;;;;5025076;28;20463;-82
2022/09/12 00:03:41;;;;;;;0.73;0.30;;;13.20;99.90;;;;;;5030783;28;20045;-82
2022/09/12 00:06:10;;;;;;;0.20;0.20;;;13.20;99.90;;;;;;5030322;28;20387;-82
2022/09/12 00:08:37;;;;;;;1.10;0.70;;;13.20;99.90;;;;;;5030447;28;20477;-83
2022/09/12 00:11:09;;;;;;;0.22;0.20;;;13.20;99.90;;;;;;5053527;28;20046;-83
2022/09/12 00:13:37;;;;;;;0.22;0.15;;;13.20;99.90;;;;;;5047215;28;20042;-82
2022/09/12 00:16:05;;;;;;;0.45;0.40;;;13.20;99.90;;;;;;5063013;28;20088;-83
2022/09/12 00:18:32;;;;;;;0.98;0.50;;;13.20;99.90;;;;;;5030500;28;20490;-83
2022/09/12 00:21:03;;;;;;;0.28;0.28;;;13.10;99.90;;;;;;5014573;28;20437;-82
2022/09/12 00:23:32;;;;;;;0.47;0.38;;;13.10;99.90;;;;;;5030205;28;20093;-83
2022/09/12 00:25:59;;;;;;;0.50;0.30;;;13.10;99.90;;;;;;5030545;28;20077;-83
2022/09/12 00:28:25;;;;;;;0.10;0.10;;;13.10;99.90;;;;;;5046209;28;20131;-82
2022/09/12 00:30:52;;;;;;;0.38;0.28;;;13.10;99.90;;;;;;5030029;28;20042;-83
2022/09/12 00:33:19;;;;;;;0.28;0.28;;;13.10;99.90;;;;;;5030910;28;20455;-82
2022/09/12 00:35:53;;;;;;;0.73;0.50;;;13.10;99.90;;;;;;5050252;28;20144;-83
2022/09/12 00:38:20;;;;;;;0.88;0.60;;;13.10;99.90;;;;;;5049529;28;20125;-82
2022/09/12 00:40:48;;;;;;;0.50;0.40;;;13.10;99.90;;;;;;5066551;28;20152;-82
2022/09/12 00:43:41;;;;;;;0.52;0.30;;;13.00;99.90;;;;;;5049036;28;20398;-83
2022/09/12 00:46:15;;;;;;;0.70;0.25;;;13.10;99.90;;;;;;5065714;28;20045;-83
2022/09/12 00:48:48;;;;;;;0.35;0.35;;;13.00;99.90;;;;;;5066507;28;20080;-82
2022/09/12 00:51:16;;;;;;;0.82;0.55;;;13.00;99.90;;;;;;5082697;28;20115;-82
2022/09/12 00:53:45;;;;;;;0.75;0.30;;;13.00;99.90;;;;;;5049648;28;20050;-83
2022/09/12 00:56:14;;;;;;;0.52;0.32;;;13.00;99.90;;;;;;5066063;28;20052;-83
2022/09/12 00:58:47;;;;;;;0.50;0.40;;;13.00;99.90;;;;;;5049867;28;20466;-82
2022/09/12 01:01:14;;;;;;;0.30;0.20;;;12.90;99.90;;;;;;5065793;28;20048;-83
2022/09/12 01:03:40;;;;;;;0.40;0.30;;;12.90;99.90;;;;;;5032929;28;20033;-83
2022/09/12 01:06:20;;;;;;;0.40;0.20;;;12.90;99.90;;;;;;5032935;28;20037;-82
2022/09/12 01:08:48;;;;;;;0.43;0.35;;;12.80;99.90;;;;;;5058310;28;20465;-82
2022/09/12 01:11:15;;;;;;;0.20;0.20;;;12.80;99.90;;;;;;5029289;28;20534;-83
2022/09/12 01:13:43;;;;;;;0.43;0.32;;;12.80;99.90;;;;;;5032454;28;20120;-83
2022/09/12 01:16:11;;;;;;;1.20;0.40;;;12.80;99.90;;;;;;5032916;28;20045;-83
2022/09/12 01:18:42;;;;;;;0.22;0.22;;;12.80;99.90;;;;;;5049565;28;20037;-83
2022/09/12 01:21:36;;;;;;;0.43;0.30;;;12.70;99.90;;;;;;5081953;28;20401;-83
2022/09/12 01:24:17;;;;;;;0.47;0.32;;;12.70;99.90;;;;;;5082441;28;20560;-82
2022/09/12 01:27:11;;;;;;;0.30;0.22;;;12.70;99.90;;;;;;5082440;28;20050;-82
2022/09/12 01:29:59;;;;;;;0.88;0.45;;;12.70;99.90;;;;;;5049004;28;20382;-82
2022/09/12 01:32:41;;;;;;;0.57;0.50;;;12.60;99.90;;;;;;5065422;28;20041;-82
2022/09/12 01:35:40;;;;;;;0.45;0.38;;;12.60;99.90;;;;;;5065321;28;20041;-83
2022/09/12 01:38:22;;;;;;;0.28;0.28;;;12.60;99.90;;;;;;5065513;28;20470;-83
2022/09/12 01:40:58;;;;;;;1.10;0.70;;;12.50;99.90;;;;;;5065702;28;20107;-83
2022/09/12 01:43:38;;;;;;;0.40;0.40;;;12.60;99.90;;;;;;5082318;28;20607;-82
2022/09/12 01:46:14;;;;;;;0.57;0.47;;;12.50;99.90;;;;;;5069497;28;20080;-82
2022/09/12 01:48:45;;;;;;;;;;;12.40;99.90;;;;;;5053478;28;20445;-82
2022/09/12 01:51:21;;;;;;;0.70;0.40;;;12.50;99.90;;;;;;5069662;28;19967;-82
2022/09/12 01:53:54;;;;;;;0.40;0.22;;;12.40;99.90;;;;;;5069271;28;20038;-82
2022/09/12 01:56:27;;;;;;;0.60;0.50;;;12.40;99.90;;;;;;5069090;28;20042;-82
2022/09/12 01:59:18;;;;;;;0.32;0.30;;;12.40;99.90;;;;;;5086136;28;20037;-82
2022/09/12 02:02:02;;;;;;;0.77;0.40;;;12.40;99.90;;;;;;5069215;28;20038;-82
2022/09/12 02:04:34;;;;;;;0.30;0.30;;;12.40;99.90;;;;;;5068862;28;20048;-82
2022/09/12 02:07:05;;;;;;;0.30;0.30;;;12.40;99.90;;;;;;5069391;28;20040;-82
2022/09/12 02:09:44;;;;;;;0.68;0.43;;;12.30;99.90;;;;;;5085340;28;20103;-82
2022/09/12 02:12:12;;;;;;;0.30;0.30;;;12.30;99.90;;;;;;5052949;28;20053;-83
2022/09/12 02:14:45;;;;;;;0.85;0.45;;;12.30;99.90;;;;;;5052463;28;20052;-82
2022/09/12 02:17:23;;;;;;;0.47;0.47;;;12.30;99.90;;;;;;5069140;28;20470;-83
2022/09/12 02:19:59;;;;;;;0.63;0.35;;;12.30;99.90;;;;;;5052544;28;20041;-82
2022/09/12 02:22:28;;;;;;;0.47;0.30;;;12.30;99.90;;;;;;5052031;28;20041;-82
2022/09/12 02:24:59;;;;;;;1.67;0.50;;;12.30;99.90;;;;;;5052239;28;20536;-82
2022/09/12 02:27:37;;;;;;;0.68;0.50;;;12.30;99.90;;;;;;5068557;28;20132;-82
2022/09/12 02:30:05;;;;;;;0.80;0.40;;;12.20;99.90;;;;;;5052700;28;20053;-83
2022/09/12 02:32:37;;;;;;;1.23;0.63;;;12.20;99.90;;;;;;5035611;28;20448;-82
2022/09/12 02:35:12;;;;;;;0.50;0.40;;;12.20;99.90;;;;;;5085211;28;20045;-82
2022/09/12 02:37:54;;;;;;;0.95;0.63;;;12.20;99.90;;;;;;5068232;28;20047;-82
2022/09/12 02:40:22;;;;;;;1.70;0.50;;;12.20;99.90;;;;;;5068324;28;20045;-82
2022/09/12 02:42:49;;;;;;;0.50;0.50;;;12.20;99.90;;;;;;5035914;28;20044;-82
2022/09/12 02:45:17;;;;;;;0.25;0.25;;;12.20;99.90;;;;;;5051667;28;20046;-82
2022/09/12 02:48:15;;;;;;;0.65;0.45;;;12.20;99.90;;;;;;5035289;28;20128;-82
2022/09/12 02:50:42;;;;;;;1.30;0.57;;;12.20;99.90;;;;;;5044512;28;20552;-82
2022/09/12 02:53:10;;;;;;;0.77;0.43;;;12.20;99.90;;;;;;5052166;28;20045;-82
2022/09/12 02:55:38;;;;;;;0.45;0.30;;;12.20;99.90;;;;;;5035006;28;20374;-82
2022/09/12 02:58:11;;;;;;;0.45;0.28;;;12.20;99.90;;;;;;5051756;28;20042;-82
2022/09/12 03:00:50;;;;;;;0.85;0.40;;;12.20;99.90;;;;;;5051465;28;20044;-82
2022/09/12 03:03:40;;;;;;;1.02;0.65;;;12.10;99.90;;;;;;5051567;28;20045;-82
2022/09/12 03:06:23;;;;;;;0.85;0.60;;;12.10;99.90;;;;;;5044817;28;20053;-82
2022/09/12 03:09:06;;;;;;;0.88;0.50;;;12.10;99.90;;;;;;5047943;28;20053;-82
2022/09/12 03:11:50;;;;;;;0.38;0.35;;;12.10;99.90;;;;;;5031739;28;20046;-82
2022/09/12 03:14:44;;;;;;;1.27;0.85;;;12.10;99.90;;;;;;5048018;28;20048;-82
2022/09/12 03:17:24;;;;;;;0.75;0.50;;;12.10;99.90;;;;;;5031571;28;20045;-82
2022/09/12 03:20:33;;;;;;;0.65;0.40;;;12.00;99.90;;;;;;5031551;28;20038;-82
2022/09/12 03:23:08;;;;;;;0.68;0.45;;;12.00;99.90;;;;;;5023651;28;20049;-82
2022/09/12 03:25:40;;;;;;;0.73;0.47;;;12.00;99.90;;;;;;5047922;28;20058;-82
2022/09/12 03:28:12;;;;;;;0.95;0.50;;;11.90;99.90;;;;;;5051497;28;20168;-82
2022/09/12 03:30:45;;;;;;;0.82;0.55;;;12.00;99.90;;;;;;5063975;28;20668;-82
2022/09/12 03:33:14;;;;;;;0.32;0.30;;;12.00;99.90;;;;;;5048078;28;20046;-83
2022/09/12 03:35:41;;;;;;;0.20;0.20;;;12.00;99.90;;;;;;5015492;28;20156;-82
2022/09/12 03:38:08;;;;;;;1.20;0.60;;;11.90;99.90;;;;;;5033953;28;20077;-82
2022/09/12 03:40:36;;;;;;;1.02;0.60;;;11.90;99.90;;;;;;5034771;28;20060;-83
2022/09/12 03:43:04;;;;;;;0.52;0.32;;;12.00;99.90;;;;;;5050749;28;20087;-83
2022/09/12 03:45:31;;;;;;;0.90;0.50;;;11.90;99.90;;;;;;5050752;28;20048;-82
2022/09/12 03:47:58;;;;;;;0.57;0.43;;;11.90;99.90;;;;;;5034480;28;20030;-82
2022/09/12 03:50:24;;;;;;;0.70;0.50;;;11.90;99.90;;;;;;5050873;28;20095;-82
2022/09/12 03:52:51;;;;;;;0.85;0.50;;;11.90;99.90;;;;;;5034249;28;20045;-82
2022/09/12 03:55:18;;;;;;;0.60;0.40;;;11.90;99.90;;;;;;5050887;28;20092;-82
2022/09/12 03:57:45;;;;;;;0.30;0.30;;;11.80;99.90;;;;;;5050766;28;20041;-82
2022/09/12 04:00:12;;;;;;;0.55;0.30;;;11.90;99.90;;;;;;5030911;28;20073;-82
2022/09/12 04:02:38;;;;;;;0.47;0.30;;;11.90;99.90;;;;;;5030603;28;20073;-82
2022/09/12 04:05:05;;;;;;;0.50;0.40;;;12.00;99.90;;;;;;5047156;28;20536;-82
2022/09/12 04:07:32;;;;;;;0.95;0.47;;;12.00;99.90;;;;;;5029608;28;20037;-82
2022/09/12 04:09:59;;;;;;;0.70;0.50;;;12.00;99.90;;;;;;5030685;28;20153;-82
2022/09/12 04:12:25;;;;;;;0.28;0.28;;;12.00;99.90;;;;;;5039035;28;20132;-82
2022/09/12 04:14:52;;;;;;;0.90;0.47;;;12.00;99.90;;;;;;5033843;28;20099;-82
2022/09/12 04:17:19;;;;;;;0.68;0.45;;;12.00;99.90;;;;;;5066681;28;20039;-82
2022/09/12 04:19:45;;;;;;;0.68;0.50;;;12.00;99.90;;;;;;5033678;28;20053;-82
2022/09/12 04:22:12;;;;;;;0.77;0.45;;;12.10;99.90;;;;;;5030314;28;20509;-82
2022/09/12 04:24:39;;;;;;;0.88;0.60;;;12.10;99.90;;;;;;5030127;28;20088;-82
2022/09/12 04:27:05;;;;;;;1.17;0.55;;;12.10;99.90;;;;;;5030313;28;20045;-82
2022/09/12 04:29:32;;;;;;;0.90;0.30;;;12.10;99.90;;;;;;5030401;28;20048;-82
2022/09/12 04:31:59;;;;;;;0.47;0.30;;;12.10;99.90;;;;;;5029943;28;20180;-82
2022/09/12 04:34:28;;;;;;;1.00;0.52;;;12.20;99.90;;;;;;5030207;28;20057;-82
2022/09/12 04:36:55;;;;;;;0.95;0.47;;;12.20;99.90;;;;;;5013874;28;20085;-82
2022/09/12 04:39:22;;;;;;;0.80;0.55;;;12.20;99.90;;;;;;5038101;28;20045;-82
2022/09/12 04:41:48;;;;;;;0.50;0.38;;;12.20;99.90;;;;;;5034426;28;20048;-82
2022/09/12 04:44:15;;;;;;;0.60;0.35;;;12.20;99.90;;;;;;5026747;28;20045;-82
2022/09/12 04:46:45;;;;;;;1.38;0.30;;;12.20;99.90;;;;;;5029201;28;20038;-82
2022/09/12 04:49:18;;;;;;;0.93;0.50;;;12.30;99.90;;;;;;5065294;28;20052;-82
2022/09/12 04:51:45;;;;;;;0.88;0.60;;;12.20;99.90;;;;;;5015709;28;20048;-82
2022/09/12 04:54:15;;;;;;;1.77;1.00;;;12.20;99.90;;;;;;5049513;28;20100;-82
2022/09/12 04:56:44;;;;;;;1.05;0.57;;;12.20;99.90;;;;;;5049235;28;20038;-82
2022/09/12 04:59:14;;;;;;;0.43;0.40;;;12.20;99.90;;;;;;5049754;28;20488;-82
2022/09/12 05:01:41;;;;;;;1.15;0.60;;;12.30;99.90;;;;;;5082066;28;20045;-82
2022/09/12 05:04:09;;;;;;;0.45;0.43;;;12.30;99.90;;;;;;5033176;28;20096;-82
2022/09/12 05:06:37;;;;;;;0.98;0.55;;;12.30;99.90;;;;;;5049724;28;20056;-82
2022/09/12 05:09:05;;;;;;;0.77;0.52;;;12.20;99.90;;;;;;5049109;28;20045;-82
2022/09/12 05:11:35;;;;;;;0.55;0.45;;;12.20;99.90;;;;;;5065960;28;20077;-82
2022/09/12 05:14:02;;;;;;;0.55;0.45;;;12.30;99.90;;;;;;5081996;28;20502;-82
2022/09/12 05:16:31;;;;;;;0.85;0.50;;;12.30;99.90;;;;;;5082419;28;20037;-82
2022/09/12 05:18:59;;;;;;;0.75;0.38;;;12.30;99.90;;;;;;5049225;28;20378;-82
2022/09/12 05:21:26;;;;;;;0.22;0.20;;;12.30;99.90;;;;;;5049324;28;20042;-82
2022/09/12 05:23:55;;;;;;;1.35;0.50;;;12.40;99.90;;;;;;5048628;28;20041;-82
2022/09/12 05:26:23;;;;;;;0.75;0.52;;;12.40;99.90;;;;;;5049093;28;20068;-82
2022/09/12 05:28:52;;;;;;;0.55;0.30;;;12.50;99.90;;;;;;5065536;28;20041;-82
2022/09/12 05:31:26;;;;;;;0.75;0.40;;;12.50;99.90;;;;;;5049082;28;20037;-82
2022/09/12 05:33:55;;;;;;;0.30;0.28;;;12.60;99.90;;;;;;5048664;28;20490;-82
2022/09/12 05:36:31;;;;;;;0.30;0.30;;;12.80;99.90;;;;;;5082332;28;20084;-82
2022/09/12 05:39:02;;;;;;;1.20;0.70;;;12.80;99.90;;;;;;5048699;28;20451;-82
2022/09/12 05:41:32;;;;;;;1.13;0.70;;;12.90;99.90;;;;;;5049148;28;20041;-82
2022/09/12 05:44:01;;;;;;;0.32;0.30;;;13.00;99.90;;;;;;5048541;28;20180;-82
2022/09/12 05:46:30;;;;;;;0.47;0.40;;;13.10;99.90;;;;;;5048641;28;20175;-82
2022/09/12 05:49:03;;;;;;;1.17;0.55;;;13.20;99.90;;;;;;5048595;28;20493;-82
2022/09/12 05:51:33;;;;;;;0.50;0.40;;;13.30;99.90;;;;;;5048902;28;20158;-82
2022/09/12 05:54:02;;;;;;;0.52;0.40;;;13.30;99.90;;;;;;5048758;28;20042;-83
2022/09/12 05:56:32;;;;;;;0.55;0.32;;;13.40;99.90;;;;;;5049449;28;20042;-83
2022/09/12 05:59:01;;;;;;;1.20;0.65;;;13.50;99.90;;;;;;5048505;28;20052;-83
2022/09/12 06:01:29;;;;;;;0.80;0.55;;;13.60;99.90;;;;;;5048923;28;20460;-82
2022/09/12 06:03:59;;;;;;;0.43;0.35;;;13.60;99.90;;;;;;5031910;28;20096;-83
2022/09/12 06:06:28;;;;;;;1.15;0.60;;;13.70;99.90;;;;;;5028910;28;20041;-82
2022/09/12 06:08:57;;;;;;;0.85;0.68;;;13.80;99.90;;;;;;5028689;28;20061;-82
2022/09/12 06:11:27;;;;;;;1.42;0.88;;;13.80;99.90;;;;;;5029194;28;20130;-82
2022/09/12 06:13:57;;;;;;;1.10;0.70;;;13.90;99.90;;;;;;5044845;28;20067;-82
2022/09/12 06:16:28;;;;;;;1.23;0.70;;;13.90;99.90;;;;;;5017421;28;20042;-82
2022/09/12 06:18:56;;;;;;;1.40;0.85;;;13.70;99.90;;;;;;5051083;28;20045;-82
2022/09/12 06:21:25;;;;;;;1.25;0.65;;;14.00;99.90;;;;;;5052270;28;20045;-82
2022/09/12 06:23:55;;;;;;;0.57;0.32;;;14.00;99.90;;;;;;5081154;28;20450;-82
2022/09/12 06:26:24;;;;;;;0.57;0.50;;;14.10;99.90;;;;;;5048316;28;20525;-82
2022/09/12 06:28:52;;;;;;;1.48;0.98;;;14.10;99.90;;;;;;5048050;28;20454;-82
2022/09/12 06:31:22;;;;;;;1.23;0.75;;;14.10;99.90;;;;;;5051959;28;20030;-82
2022/09/12 06:33:51;;;;;;;1.55;0.82;;;14.20;99.90;;;;;;5052319;28;20102;-82
2022/09/12 06:36:19;;;;;;;0.85;0.47;;;14.20;99.90;;;;;;5052063;28;20046;-82
2022/09/12 06:38:47;;;;;;;1.20;0.70;;;14.30;99.90;;;;;;5051737;28;20516;-82
2022/09/12 06:41:14;;;;;;;0.98;0.60;;;14.30;99.90;;;;;;5035766;28;20049;-83
2022/09/12 06:43:41;;;;;;;1.73;0.90;;;14.30;99.90;;;;;;5051788;28;20063;-83
2022/09/12 06:46:11;;;;;;;0.85;0.40;;;14.40;99.90;;;;;;5047432;28;20038;-82
2022/09/12 06:48:38;;;;;;;0.88;0.60;;;14.40;99.90;;;;;;5051566;28;20036;-84
2022/09/12 06:51:12;;;;;;;1.48;0.80;;;14.50;99.90;;;;;;5067884;28;20493;-83
2022/09/12 06:53:39;;;;;;;1.27;0.68;;;14.50;99.90;;;;;;5068299;28;20412;-83
2022/09/12 06:56:10;;;;;;;2.53;0.98;;;14.60;99.90;;;;;;5045544;28;20517;-83
2022/09/12 06:58:37;;;;;;;1.70;1.00;;;14.60;99.90;;;;;;5039094;28;20688;-83
2022/09/12 07:01:15;;;;;;;0.88;0.85;;;14.70;99.90;;;;;;5031782;28;20049;-84
2022/09/12 07:03:45;;;;;;;1.15;0.70;;;14.70;99.90;;;;;;5051406;28;20041;-83
2022/09/12 07:06:14;;;;;;;0.70;0.50;;;14.80;99.90;;;;;;5052018;28;20041;-83
2022/09/12 07:08:41;;;;;;;1.23;0.77;;;14.80;99.90;;;;;;5035107;28;20049;-83
2022/09/12 07:11:20;;;;;;;1.73;1.05;;;14.90;99.90;;;;;;5084379;28;20040;-84
2022/09/12 07:13:50;;;;;;;2.33;0.90;;;14.90;99.90;;;;;;5040811;28;20045;-84
2022/09/12 07:16:17;;;;;;;1.60;1.13;;;15.00;99.90;;;;;;5058857;28;20045;-82
2022/09/12 07:18:45;;;;;;;1.50;0.80;;;15.00;99.90;;;;;;5042606;28;20044;-82
2022/09/12 07:21:13;;;;;;;1.13;0.90;;;15.10;99.90;;;;;;5031457;28;20041;-82
2022/09/12 07:23:40;;;;;;;1.35;0.82;;;15.10;99.90;;;;;;5071833;28;20037;-81
2022/09/12 07:26:11;;;;;;;0.75;0.63;;;15.20;99.90;;;;;;5054530;28;20042;-82
2022/09/12 07:28:38;;;;;;;1.20;1.00;;;15.30;99.90;;;;;;5031437;28;20100;-82
2022/09/12 07:31:17;;;;;;;1.50;1.05;;;15.30;99.90;;;;;;5047653;28;20042;-82
2022/09/12 07:33:43;;;;;;;0.85;0.50;;;15.40;99.90;;;;;;5031460;28;20037;-82
2022/09/12 07:36:15;;;;;;;1.88;1.10;;;15.40;99.90;;;;;;5015016;28;20124;-82
2022/09/12 07:38:42;;;;;;;0.47;0.40;;;15.40;99.90;;;;;;5031179;28;20565;-82
2022/09/12 07:41:20;;;;;;;1.45;0.98;;;15.50;99.90;;;;;;5013539;28;20053;-81
2022/09/12 07:43:47;;;;;;;1.13;0.88;;;15.60;99.90;;;;;;5031049;28;20038;-82
2022/09/12 07:46:13;;;;;;;0.93;0.65;;;15.60;99.90;;;;;;5030783;28;20132;-82
2022/09/12 07:48:40;;;;;;;1.98;1.10;;;15.70;99.90;;;;;;5030837;28;20037;-82
2022/09/12 07:51:09;;;;;;;2.17;1.10;;;15.70;99.90;;;;;;5014346;28;20406;-82
2022/09/12 07:53:38;;;;;;;1.92;1.05;;;15.80;99.90;;;;;;5014716;28;20046;-82
2022/09/12 07:56:07;;;;;;;1.98;1.20;;;15.90;99.90;;;;;;5030502;28;20061;-82
2022/09/12 07:58:35;;;;;;;1.00;0.88;;;16.00;99.90;;;;;;5047063;28;20046;-82
2022/09/12 08:01:07;;;;;;;1.42;1.05;;;16.00;99.90;;;;;;5030340;28;20038;-82
2022/09/12 08:03:35;;;;;;;1.98;1.45;;;16.10;99.90;;;;;;5030525;28;20152;-82
2022/09/12 08:06:07;;;;;;;2.17;1.05;;;16.30;99.90;;;;;;5014052;28;20038;-82
2022/09/12 08:08:35;;;;;;;2.33;1.20;;;16.40;99.90;;;;;;5030523;28;20486;-82
2022/09/12 08:11:07;;;;;;;1.95;1.05;;;16.50;99.90;;;;;;5014099;28;20077;-82
2022/09/12 08:13:37;;;;;;;3.10;1.60;;;16.50;99.90;;;;;;5030937;28;20120;-82
2022/09/12 08:16:07;;;;;;;1.73;1.10;;;16.60;99.90;;;;;;5030261;28;20045;-82
2022/09/12 08:18:35;;;;;;;1.70;1.13;;;16.70;99.90;;;;;;5030298;28;20037;-82
2022/09/12 08:21:07;;;;;;;1.33;0.80;;;16.70;99.90;;;;;;5014168;28;20049;-82
2022/09/12 08:23:33;;;;;;;1.35;0.88;;;16.70;99.90;;;;;;5030411;28;20557;-82
2022/09/12 08:26:03;;;;;;;2.25;1.30;;;16.70;99.90;;;;;;5013983;28;20128;-82
2022/09/12 08:28:31;;;;;;;1.38;0.80;;;16.80;99.90;;;;;;5046796;28;20038;-81
2022/09/12 08:31:10;;;;;;;1.02;0.70;;;16.70;99.90;;;;;;5014268;28;20076;-82
2022/09/12 08:33:37;;;;;;;2.13;1.30;;;16.80;99.90;;;;;;5030197;28;20041;-82
2022/09/12 08:36:17;;;;;;;1.77;1.15;;;16.80;99.90;;;;;;5029971;28;20112;-82
2022/09/12 08:38:45;;;;;;;1.95;1.27;;;16.80;99.90;;;;;;5030369;28;20049;-81
2022/09/12 08:41:23;;;;;;;2.67;1.38;;;16.90;99.90;;;;;;5029765;28;20449;-82
2022/09/12 08:44:26;;;;;;;1.05;0.65;;;17.00;99.90;;;;;;5046374;28;20081;-81
2022/09/12 08:47:05;;;;;;;1.45;0.80;;;17.10;99.90;;;;;;5029880;28;20085;-82
2022/09/12 08:49:50;;;;;;;1.88;1.15;;;17.30;99.90;;;;;;5029719;28;20046;-82
2022/09/12 08:52:43;;;;;;;1.75;1.00;;;17.40;99.90;;;;;;5062004;28;20042;-82
2022/09/12 08:55:35;;;;;;;2.40;1.10;;;17.40;99.90;;;;;;5019138;28;20199;-82
2022/09/12 08:58:10;;;;;;;1.98;0.98;;;17.50;99.90;;;;;;5062890;28;20095;-82
2022/09/12 09:01:22;;;;;;;0.88;0.70;;;17.50;99.90;;;;;;5046335;28;20041;-82
2022/09/12 09:04:20;;;;;;;1.75;1.27;;;17.60;99.90;;;;;;5005154;28;20050;-82
2022/09/12 09:06:49;;;;;;;1.90;1.08;;;17.60;99.90;;;;;;5029629;28;20038;-82
2022/09/12 09:09:37;;;;;;;2.05;1.20;;;17.70;99.90;;;;;;5029128;28;20054;-82
2022/09/12 09:12:24;;;;;;;1.33;0.80;;;17.80;99.90;;;;;;5029239;28;20034;-82
2022/09/12 09:15:11;;;;;;;2.13;1.13;;;17.90;99.90;;;;;;5045924;28;20128;-82
2022/09/12 09:17:43;;;;;;;1.90;1.20;;;18.00;99.90;;;;;;5015813;28;20050;-82
2022/09/12 09:20:26;;;;;;;1.48;1.00;;;18.10;99.90;;;;;;5029267;28;20042;-82
2022/09/12 09:23:07;;;;;;;1.52;0.88;;;18.20;99.90;;;;;;5029366;28;20518;-82
2022/09/12 09:26:03;;;;;;;1.92;1.00;;;18.30;99.90;;;;;;5029116;28;20042;-81
2022/09/12 09:28:44;;;;;;;1.17;0.68;;;18.40;99.90;;;;;;5045276;28;20049;-81
2022/09/12 09:31:15;;;;;;;1.80;1.17;;;18.50;99.90;;;;;;5029201;28;20038;-82
2022/09/12 09:33:43;;;;;;;1.13;0.90;;;18.50;99.90;;;;;;5013212;28;20577;-82
2022/09/12 09:36:16;;;;;;;1.10;0.80;;;18.60;99.90;;;;;;5029236;28;20387;-82
2022/09/12 09:39:06;;;;;;;1.20;0.82;;;18.70;99.90;;;;;;5028963;28;20409;-82
2022/09/12 09:41:41;;;;;;;1.48;0.90;;;18.80;99.90;;;;;;5029021;28;20136;-81
2022/09/12 09:44:08;;;;;;;1.58;0.82;;;18.90;99.90;;;;;;5029263;28;20064;-81
2022/09/12 09:46:35;;;;;;;1.50;1.00;;;19.00;99.90;;;;;;5012472;28;20050;-82
2022/09/12 09:49:05;;;;;;;1.52;0.80;;;19.10;99.90;;;;;;5029365;28;20560;-81
2022/09/12 09:51:37;;;;;;;1.00;0.75;;;19.10;99.90;;;;;;5028621;28;20041;-81
2022/09/12 09:54:25;;;;;;;2.10;1.00;;;19.10;99.90;;;;;;5029057;28;20053;-82
2022/09/12 09:56:51;;;;;;;1.17;0.70;;;19.20;99.90;;;;;;5045570;28;20518;-81
2022/09/12 09:59:28;;;;;;;1.85;1.05;;;19.10;99.90;;;;;;5028702;28;20034;-82
2022/09/12 10:02:02;;;;;;;1.30;0.82;;;19.20;99.90;;;;;;5029026;28;20045;-82
2022/09/12 10:04:32;;;;;;;1.75;1.10;;;19.10;99.90;;;;;;5029631;28;20029;-81
2022/09/12 10:07:01;;;;;;;2.22;1.15;;;19.10;99.90;;;;;;5032886;28;20046;-82
2022/09/12 10:09:35;;;;;;;1.42;0.80;;;19.10;99.90;;;;;;5048855;28;20062;-82
2022/09/12 10:12:25;;;;;;;1.52;1.00;;;19.20;99.90;;;;;;5016501;28;20073;-82
2022/09/12 10:15:01;;;;;;;2.08;1.25;;;19.30;99.90;;;;;;5032760;28;20387;-82
2022/09/12 10:17:30;;;;;;;2.25;1.45;;;19.30;99.90;;;;;;5032771;28;20037;-82
2022/09/12 10:19:57;;;;;;;1.48;1.08;;;19.40;99.90;;;;;;5049222;28;20046;-82
2022/09/12 10:22:28;;;;;;;2.13;1.35;;;19.40;99.90;;;;;;5032287;28;20046;-82
2022/09/12 10:24:57;;;;;;;3.15;1.73;;;19.50;99.90;;;;;;5048136;28;20038;-82
2022/09/12 10:27:27;;;;;;;2.22;1.20;;;19.60;99.90;;;;;;5057905;28;20052;-82
2022/09/12 10:30:00;;;;;;;2.50;1.58;;;19.70;99.90;;;;;;5045756;28;20037;-82
2022/09/12 10:32:35;;;;;;;2.63;1.77;;;19.80;99.90;;;;;;5064213;28;20401;-82
2022/09/12 10:35:07;;;;;;;3.10;1.55;;;19.80;99.90;;;;;;5085184;28;20401;-83
2022/09/12 10:37:38;;;;;;;3.22;1.77;;;19.90;99.90;;;;;;5068606;28;20138;-82
2022/09/12 10:40:20;;;;;;;1.42;1.10;;;20.00;99.90;;;;;;5052332;28;20138;-82
2022/09/12 10:42:49;;;;;;;2.85;1.73;;;20.10;99.90;;;;;;5048866;28;20042;-80
2022/09/12 10:45:36;;;;;;;2.55;1.40;;;20.20;99.90;;;;;;5051498;28;20052;-79
2022/09/12 10:48:32;;;;;;;3.08;1.65;;;20.40;99.90;;;;;;5039353;28;20069;-80
2022/09/12 10:51:00;;;;;;;3.10;2.05;;;20.50;99.90;;;;;;5064748;28;20179;-79
2022/09/12 10:53:30;;;;;;;4.22;1.98;;;20.60;99.90;;;;;;5032153;28;20048;-80
2022/09/12 10:56:32;;;;;;;2.80;1.67;;;20.70;99.90;;;;;;5068157;28;20128;-80
2022/09/12 10:59:05;;;;;;;3.30;1.73;;;20.80;99.90;;;;;;5046745;28;20057;-80
2022/09/12 11:01:32;;;;;;;2.60;1.63;;;20.90;99.90;;;;;;5051545;28;20038;-82
2022/09/12 11:04:27;;;;;;;2.85;1.73;;;21.00;99.90;;;;;;5050995;28;20424;-82
2022/09/12 11:07:29;;;;;;;2.83;1.63;;;21.00;99.90;;;;;;5051495;28;20041;-81
2022/09/12 11:10:05;;;;;;;3.42;1.88;;;21.10;99.90;;;;;;5068257;28;20081;-82
2022/09/12 11:12:50;;;;;;;;;;;21.20;99.90;;;;;;5085243;28;20041;-82
2022/09/12 11:15:29;;;;;;;2.17;1.45;;;21.30;99.90;;;;;;5067522;28;19924;-82
2022/09/12 11:18:34;;;;;;;2.70;1.58;;;21.50;99.90;;;;;;5031444;28;20406;-82
2022/09/12 11:21:16;;;;;;;2.90;1.65;;;21.60;99.90;;;;;;5040824;28;20045;-82
2022/09/12 11:23:43;;;;;;;2.47;1.33;;;21.60;99.90;;;;;;5067307;28;20042;-82
2022/09/12 11:26:30;;;;;;;1.98;1.50;;;21.70;99.90;;;;;;5050920;28;20129;-82
2022/09/12 11:29:24;;;;;;;3.00;1.70;;;21.70;99.90;;;;;;5036011;28;20037;-82
2022/09/12 11:32:15;;;;;;;2.15;1.25;;;21.70;99.90;;;;;;5066881;28;20107;-82
2022/09/12 11:34:44;;;;;;;1.50;0.93;;;21.80;99.90;;;;;;5031411;28;20038;-82
2022/09/12 11:37:31;;;;;;;2.30;1.40;;;21.80;99.90;;;;;;5047854;28;20042;-82
2022/09/12 11:40:16;;;;;;;1.58;1.05;;;21.90;99.90;;;;;;5034892;28;20120;-83
2022/09/12 11:42:44;;;;;;;2.83;1.42;;;22.00;99.90;;;;;;5073453;28;20128;-83
2022/09/12 11:45:19;;;;;;;1.95;1.10;;;21.90;99.90;;;;;;5049912;28;20036;-82
2022/09/12 11:47:53;;;;;;;1.50;1.00;;;22.10;99.90;;;;;;5048911;28;20510;-82
2022/09/12 11:50:28;;;;;;;2.55;1.27;;;22.10;99.90;;;;;;5031061;28;20087;-83
2022/09/12 11:53:04;;;;;;;1.45;1.05;;;22.20;99.90;;;;;;5059232;28;20103;-83
2022/09/12 11:55:52;;;;;;;2.20;1.30;;;22.20;99.90;;;;;;5050124;28;20041;-82
2022/09/12 11:58:24;;;;;;;2.58;1.20;;;22.20;99.90;;;;;;5080981;28;20132;-83
2022/09/12 12:00:55;;;;;;;2.33;1.42;;;22.20;99.90;;;;;;5050182;28;20584;-82
2022/09/12 12:03:35;;;;;;;2.05;1.10;;;22.30;99.90;;;;;;5066821;28;20040;-82
2022/09/12 12:06:26;;;;;;;1.75;1.10;;;22.30;99.90;;;;;;5050590;28;20081;-82
2022/09/12 12:08:54;;;;;;;1.83;1.02;;;22.40;99.90;;;;;;5049671;28;20502;-83
2022/09/12 12:11:35;;;;;;;2.38;1.40;;;22.40;99.90;;;;;;5050043;28;20124;-82
2022/09/12 12:14:04;;;;;;;2.53;1.52;;;22.30;99.90;;;;;;5050460;28;20043;-82
2022/09/12 12:16:36;;;;;;;2.50;1.50;;;22.40;99.90;;;;;;5050449;28;20131;-82
2022/09/12 12:19:15;;;;;;;1.42;1.02;;;22.40;99.90;;;;;;5050569;28;20044;-82
2022/09/12 12:21:50;;;;;;;1.17;0.77;;;22.40;99.90;;;;;;5049826;28;20037;-82
2022/09/12 12:24:52;;;;;;;1.38;0.80;;;22.30;99.90;;;;;;5049930;28;20041;-82
2022/09/12 12:27:46;;;;;;;2.00;1.33;;;22.30;99.90;;;;;;5049424;28;20086;-82
2022/09/12 12:30:28;;;;;;;1.92;1.27;;;22.30;99.90;;;;;;5050073;28;20405;-82
2022/09/12 12:33:11;;;;;;;2.95;1.52;;;22.40;99.90;;;;;;5049459;28;20038;-82
2022/09/12 12:35:40;;;;;;;1.33;0.90;;;22.40;99.90;;;;;;5065605;28;20060;-82
2022/09/12 12:38:30;;;;;;;1.95;1.02;;;22.40;99.90;;;;;;5036183;28;20044;-82
2022/09/12 12:41:15;;;;;;;2.25;1.20;;;22.50;99.90;;;;;;5065939;28;20073;-82
2022/09/12 12:43:46;;;;;;;2.30;1.10;;;22.50;99.90;;;;;;5039009;28;20041;-82
2022/09/12 12:46:17;;;;;;;1.98;1.15;;;22.50;99.90;;;;;;5049609;28;20124;-82
2022/09/12 12:49:06;;;;;;;1.95;0.98;;;22.60;99.90;;;;;;5049436;28;20043;-82
2022/09/12 12:51:37;;;;;;;1.77;1.02;;;22.60;99.90;;;;;;5049538;28;20037;-83
2022/09/12 12:54:25;;;;;;;1.70;0.98;;;22.60;99.90;;;;;;5030615;28;20038;-82
2022/09/12 12:57:01;;;;;;;1.45;1.00;;;22.70;99.90;;;;;;5062416;28;20045;-82
2022/09/12 12:59:29;;;;;;;1.42;0.85;;;22.80;99.90;;;;;;5065560;28;20450;-82
2022/09/12 13:01:58;;;;;;;1.58;0.90;;;22.80;99.90;;;;;;5023376;28;20049;-82
2022/09/12 13:04:31;;;;;;;2.08;1.10;;;22.80;99.90;;;;;;5043456;28;20042;-82
2022/09/12 13:07:06;;;;;;;1.52;0.93;;;22.90;99.90;;;;;;5065578;28;20128;-82
2022/09/12 13:10:00;;;;;;;2.22;1.13;;;22.80;99.90;;;;;;5047807;28;20046;-83
2022/09/12 13:12:31;;;;;;;1.40;0.85;;;22.90;99.90;;;;;;5042899;28;20049;-82
2022/09/12 13:15:00;;;;;;;1.13;0.82;;;22.90;99.90;;;;;;5055175;28;20501;-82
2022/09/12 13:17:42;;;;;;;1.42;0.93;;;23.00;99.90;;;;;;5047833;28;20147;-83
2022/09/12 13:20:20;;;;;;;1.33;0.70;;;23.00;99.90;;;;;;5049185;28;20128;-82
2022/09/12 13:22:49;;;;;;;1.05;0.77;;;22.90;99.90;;;;;;5049020;28;20087;-82